CFG7UZ LOWW-EDDF
Flight info
| Callsign | CFG7UZ |
|---|---|
| Flight time | N/A |
| Altitude | 30000 |
| Route | LUGEM DCT SUBEN T161 DEBHI SPESA5C |
| Aircraft | A321/M-SDE3FGHIJ1LORVWXYZ/LB1D1 |
Departure
| Time | 2026-04-22 21:21 |
|---|---|
| Airport | Vienna International Airport (LOWW) |
Arrival
| Time | N/A |
|---|---|
| Airport | Frankfurt Main Airport (EDDF) |
| Time | Latitude | Longitude | Altitude | Speed | Heading |
|---|---|---|---|---|---|
| 2026-04-22 20:53 | 48.11985 | 16.55587 | 609 ft | 0 kts | 101° |
| 2026-04-22 21:11 | 48.11985 | 16.55586 | 609 ft | 2 kts | 101° |
| 2026-04-22 21:11 | 48.11992 | 16.55551 | 609 ft | 4 kts | 116° |
| 2026-04-22 21:11 | 48.12007 | 16.55520 | 609 ft | 4 kts | 154° |
| 2026-04-22 21:11 | 48.12024 | 16.55516 | 609 ft | 0 kts | 206° |
| 2026-04-22 21:14 | 48.12022 | 16.55515 | 609 ft | 1 kts | 206° |
| 2026-04-22 21:14 | 48.12017 | 16.55511 | 609 ft | 1 kts | 206° |
| 2026-04-22 21:14 | 48.12007 | 16.55504 | 609 ft | 2 kts | 206° |
| 2026-04-22 21:14 | 48.11972 | 16.55479 | 609 ft | 7 kts | 206° |
| 2026-04-22 21:15 | 48.11923 | 16.55445 | 609 ft | 8 kts | 201° |
| 2026-04-22 21:15 | 48.11865 | 16.55430 | 609 ft | 9 kts | 190° |
| 2026-04-22 21:15 | 48.11806 | 16.55451 | 609 ft | 11 kts | 131° |
| 2026-04-22 21:15 | 48.11762 | 16.55575 | 609 ft | 15 kts | 115° |
| 2026-04-22 21:16 | 48.11715 | 16.55722 | 609 ft | 16 kts | 115° |
| 2026-04-22 21:16 | 48.11665 | 16.55876 | 609 ft | 17 kts | 116° |
| 2026-04-22 21:16 | 48.11613 | 16.56036 | 609 ft | 17 kts | 116° |
| 2026-04-22 21:16 | 48.11559 | 16.56203 | 609 ft | 18 kts | 116° |
| 2026-04-22 21:17 | 48.11502 | 16.56372 | 609 ft | 19 kts | 116° |
| 2026-04-22 21:17 | 48.11444 | 16.56551 | 609 ft | 19 kts | 115° |
| 2026-04-22 21:17 | 48.11385 | 16.56737 | 609 ft | 20 kts | 115° |
| 2026-04-22 21:17 | 48.11321 | 16.56929 | 609 ft | 21 kts | 116° |
| 2026-04-22 21:18 | 48.11260 | 16.57119 | 609 ft | 20 kts | 116° |
| 2026-04-22 21:18 | 48.11202 | 16.57295 | 609 ft | 18 kts | 116° |
| 2026-04-22 21:18 | 48.11147 | 16.57463 | 609 ft | 17 kts | 116° |
| 2026-04-22 21:18 | 48.11099 | 16.57610 | 609 ft | 11 kts | 119° |
| 2026-04-22 21:19 | 48.11039 | 16.57641 | 609 ft | 9 kts | 197° |
| 2026-04-22 21:19 | 48.10983 | 16.57602 | 609 ft | 9 kts | 207° |
| 2026-04-22 21:19 | 48.10935 | 16.57550 | 609 ft | 10 kts | 238° |
| 2026-04-22 21:19 | 48.10947 | 16.57434 | 609 ft | 14 kts | 295° |
| 2026-04-22 21:20 | 48.11003 | 16.57265 | 609 ft | 27 kts | 296° |
| 2026-04-22 21:20 | 48.11168 | 16.56756 | 609 ft | 87 kts | 296° |
| 2026-04-22 21:20 | 48.11520 | 16.55669 | 610 ft | 141 kts | 296° |
| 2026-04-22 21:20 | 48.12006 | 16.54172 | 706 ft | 173 kts | 295° |
| 2026-04-22 21:21 | 48.12275 | 16.52495 | 1287 ft | 171 kts | 259° |
| 2026-04-22 21:21 | 48.11621 | 16.51040 | 1768 ft | 177 kts | 215° |
| 2026-04-22 21:21 | 48.10534 | 16.49996 | 1929 ft | 198 kts | 213° |
| 2026-04-22 21:21 | 48.09339 | 16.48802 | 2219 ft | 210 kts | 214° |
| 2026-04-22 21:22 | 48.08126 | 16.47551 | 2673 ft | 213 kts | 215° |
| 2026-04-22 21:22 | 48.06935 | 16.46219 | 3053 ft | 221 kts | 219° |
| 2026-04-22 21:22 | 48.05690 | 16.44658 | 3161 ft | 245 kts | 221° |
| 2026-04-22 21:22 | 48.04344 | 16.42907 | 3571 ft | 262 kts | 221° |
| 2026-04-22 21:23 | 48.02954 | 16.41081 | 4283 ft | 267 kts | 221° |
| 2026-04-22 21:23 | 48.01565 | 16.39254 | 4994 ft | 271 kts | 221° |
| 2026-04-22 21:23 | 48.00141 | 16.37382 | 5702 ft | 274 kts | 221° |
| 2026-04-22 21:23 | 47.98693 | 16.35479 | 6385 ft | 277 kts | 223° |
| 2026-04-22 21:24 | 47.97493 | 16.33218 | 7012 ft | 281 kts | 243° |
| 2026-04-22 21:24 | 47.96924 | 16.30456 | 7622 ft | 284 kts | 264° |
| 2026-04-22 21:24 | 47.97081 | 16.27510 | 8216 ft | 288 kts | 286° |
| 2026-04-22 21:24 | 47.97753 | 16.24658 | 8801 ft | 291 kts | 290° |
| 2026-04-22 21:25 | 47.98451 | 16.21800 | 9363 ft | 294 kts | 289° |
| 2026-04-22 21:25 | 47.99147 | 16.18933 | 9912 ft | 297 kts | 289° |
| 2026-04-22 21:25 | 47.99863 | 16.15953 | 10102 ft | 313 kts | 289° |
| 2026-04-22 21:25 | 48.00617 | 16.12792 | 10232 ft | 330 kts | 289° |
| 2026-04-22 21:26 | 48.01395 | 16.09521 | 10359 ft | 346 kts | 289° |
| 2026-04-22 21:26 | 48.02219 | 16.06045 | 10486 ft | 361 kts | 289° |
| 2026-04-22 21:26 | 48.03072 | 16.02449 | 10756 ft | 369 kts | 289° |
| 2026-04-22 21:26 | 48.03922 | 15.98865 | 11170 ft | 373 kts | 289° |
| 2026-04-22 21:27 | 48.04795 | 15.95184 | 11609 ft | 376 kts | 289° |
| 2026-04-22 21:27 | 48.05672 | 15.91477 | 12034 ft | 379 kts | 289° |
| 2026-04-22 21:27 | 48.06543 | 15.87782 | 12453 ft | 381 kts | 289° |
| 2026-04-22 21:27 | 48.07430 | 15.84018 | 12860 ft | 384 kts | 289° |
| 2026-04-22 21:28 | 48.08325 | 15.80215 | 13251 ft | 387 kts | 289° |
| 2026-04-22 21:28 | 48.09217 | 15.76443 | 13620 ft | 389 kts | 289° |
| 2026-04-22 21:28 | 48.10135 | 15.72592 | 13984 ft | 392 kts | 289° |
| 2026-04-22 21:28 | 48.11049 | 15.68782 | 14331 ft | 394 kts | 289° |
| 2026-04-22 21:29 | 48.11983 | 15.64887 | 14670 ft | 396 kts | 289° |
| 2026-04-22 21:29 | 48.12919 | 15.60976 | 14991 ft | 398 kts | 289° |
| 2026-04-22 21:29 | 48.13842 | 15.57106 | 15305 ft | 400 kts | 289° |
| 2026-04-22 21:29 | 48.14779 | 15.53153 | 15602 ft | 402 kts | 289° |
| 2026-04-22 21:30 | 48.15576 | 15.49107 | 15874 ft | 404 kts | 283° |
| 2026-04-22 21:30 | 48.16252 | 15.45047 | 16141 ft | 406 kts | 283° |
| 2026-04-22 21:30 | 48.16938 | 15.40922 | 16399 ft | 408 kts | 283° |
| 2026-04-22 21:30 | 48.17605 | 15.36771 | 16647 ft | 410 kts | 282° |
| 2026-04-22 21:31 | 48.18210 | 15.32631 | 16882 ft | 411 kts | 281° |
| 2026-04-22 21:31 | 48.18784 | 15.28406 | 17107 ft | 413 kts | 281° |
| 2026-04-22 21:31 | 48.19340 | 15.24161 | 17327 ft | 414 kts | 281° |
| 2026-04-22 21:31 | 48.19893 | 15.19908 | 17533 ft | 416 kts | 281° |
| 2026-04-22 21:32 | 48.20450 | 15.15684 | 17730 ft | 417 kts | 281° |
| 2026-04-22 21:32 | 48.21027 | 15.11379 | 17922 ft | 419 kts | 281° |
| 2026-04-22 21:32 | 48.21601 | 15.07127 | 18108 ft | 420 kts | 281° |
| 2026-04-22 21:32 | 48.22188 | 15.02812 | 18291 ft | 421 kts | 281° |
| 2026-04-22 21:33 | 48.22776 | 14.98473 | 18467 ft | 423 kts | 281° |
| 2026-04-22 21:33 | 48.23353 | 14.94189 | 18636 ft | 424 kts | 281° |
| 2026-04-22 21:33 | 48.23936 | 14.89829 | 18803 ft | 425 kts | 281° |
| 2026-04-22 21:33 | 48.24516 | 14.85478 | 18960 ft | 426 kts | 281° |
| 2026-04-22 21:34 | 48.25096 | 14.81101 | 19114 ft | 427 kts | 281° |
| 2026-04-22 21:34 | 48.25671 | 14.76746 | 19260 ft | 428 kts | 281° |
| 2026-04-22 21:34 | 48.26252 | 14.72343 | 19401 ft | 430 kts | 281° |
| 2026-04-22 21:34 | 48.26833 | 14.67931 | 19539 ft | 431 kts | 281° |
| 2026-04-22 21:35 | 48.27414 | 14.63521 | 19671 ft | 432 kts | 281° |
| 2026-04-22 21:35 | 48.27989 | 14.59139 | 19797 ft | 433 kts | 281° |
| 2026-04-22 21:35 | 48.28567 | 14.54693 | 19922 ft | 433 kts | 281° |
| 2026-04-22 21:35 | 48.29145 | 14.50241 | 20047 ft | 434 kts | 281° |
| 2026-04-22 21:36 | 48.29724 | 14.45780 | 20172 ft | 435 kts | 281° |
| 2026-04-22 21:36 | 48.30301 | 14.41309 | 20297 ft | 435 kts | 281° |
| 2026-04-22 21:36 | 48.30867 | 14.36900 | 20420 ft | 435 kts | 281° |
| 2026-04-22 21:36 | 48.31442 | 14.32426 | 20545 ft | 436 kts | 281° |
| 2026-04-22 21:37 | 48.32018 | 14.27944 | 20670 ft | 436 kts | 281° |
| 2026-04-22 21:37 | 48.32586 | 14.23518 | 20958 ft | 419 kts | 281° |
| 2026-04-22 21:37 | 48.33119 | 14.19334 | 21514 ft | 401 kts | 280° |
| 2026-04-22 21:37 | 48.33629 | 14.15312 | 22403 ft | 383 kts | 280° |
| 2026-04-22 21:38 | 48.34117 | 14.11432 | 22833 ft | 378 kts | 280° |
| 2026-04-22 21:38 | 48.34606 | 14.07539 | 23073 ft | 378 kts | 280° |
| 2026-04-22 21:38 | 48.35090 | 14.03678 | 23522 ft | 370 kts | 280° |
| 2026-04-22 21:38 | 48.35563 | 13.99902 | 23882 ft | 365 kts | 280° |
| 2026-04-22 21:39 | 48.36032 | 13.96137 | 24091 ft | 365 kts | 280° |
| 2026-04-22 21:39 | 48.36493 | 13.92419 | 24250 ft | 365 kts | 280° |
| 2026-04-22 21:39 | 48.36961 | 13.88639 | 24400 ft | 366 kts | 280° |
| 2026-04-22 21:39 | 48.37430 | 13.84860 | 24541 ft | 367 kts | 280° |
| 2026-04-22 21:40 | 48.37894 | 13.81117 | 24677 ft | 368 kts | 280° |
| 2026-04-22 21:40 | 48.38366 | 13.77302 | 24810 ft | 369 kts | 280° |
| 2026-04-22 21:40 | 48.38829 | 13.73544 | 24936 ft | 370 kts | 280° |
| 2026-04-22 21:40 | 48.39295 | 13.69726 | 25064 ft | 371 kts | 280° |
| 2026-04-22 21:41 | 48.39762 | 13.65894 | 25190 ft | 372 kts | 280° |
| 2026-04-22 21:41 | 48.40229 | 13.62051 | 25316 ft | 372 kts | 280° |
| 2026-04-22 21:41 | 48.40689 | 13.58253 | 25440 ft | 373 kts | 280° |
| 2026-04-22 21:41 | 48.41157 | 13.54390 | 25566 ft | 373 kts | 280° |
| 2026-04-22 21:42 | 48.41619 | 13.50569 | 25690 ft | 374 kts | 280° |
| 2026-04-22 21:42 | 48.42085 | 13.46705 | 25815 ft | 374 kts | 280° |
| 2026-04-22 21:42 | 48.42548 | 13.42837 | 25941 ft | 375 kts | 280° |
| 2026-04-22 21:42 | 48.43013 | 13.38959 | 26067 ft | 375 kts | 280° |
| 2026-04-22 21:43 | 48.43496 | 13.35138 | 26190 ft | 375 kts | 283° |
| 2026-04-22 21:43 | 48.44251 | 13.31368 | 26316 ft | 375 kts | 290° |
| 2026-04-22 21:43 | 48.45218 | 13.27716 | 26441 ft | 375 kts | 291° |
| 2026-04-22 21:43 | 48.46181 | 13.24089 | 26565 ft | 375 kts | 291° |
| 2026-04-22 21:44 | 48.47149 | 13.20432 | 26690 ft | 375 kts | 291° |
| 2026-04-22 21:44 | 48.48117 | 13.16749 | 26816 ft | 375 kts | 291° |
| 2026-04-22 21:44 | 48.49066 | 13.13131 | 26939 ft | 375 kts | 291° |
| 2026-04-22 21:44 | 48.50024 | 13.09469 | 27065 ft | 375 kts | 291° |
| 2026-04-22 21:45 | 48.50985 | 13.05793 | 27190 ft | 374 kts | 291° |
| 2026-04-22 21:45 | 48.51939 | 13.02143 | 27315 ft | 374 kts | 291° |
| 2026-04-22 21:45 | 48.52884 | 12.98531 | 27438 ft | 373 kts | 291° |
| 2026-04-22 21:45 | 48.53836 | 12.94886 | 27563 ft | 373 kts | 291° |
| 2026-04-22 21:46 | 48.54789 | 12.91234 | 27688 ft | 372 kts | 291° |
| 2026-04-22 21:46 | 48.55735 | 12.87603 | 27813 ft | 371 kts | 291° |
| 2026-04-22 21:46 | 48.56670 | 12.84013 | 27936 ft | 371 kts | 291° |
| 2026-04-22 21:46 | 48.57613 | 12.80385 | 28061 ft | 370 kts | 291° |
| 2026-04-22 21:47 | 48.58556 | 12.76749 | 28184 ft | 369 kts | 291° |
| 2026-04-22 21:47 | 48.59492 | 12.73145 | 28042 ft | 376 kts | 291° |
| 2026-04-22 21:47 | 48.61414 | 12.65706 | 28031 ft | 382 kts | 291° |
| 2026-04-22 21:48 | 48.63344 | 12.58197 | 28033 ft | 387 kts | 290° |
| 2026-04-22 21:48 | 48.65300 | 12.50539 | 28034 ft | 392 kts | 291° |
| 2026-04-22 21:49 | 48.67277 | 12.42820 | 28035 ft | 397 kts | 291° |
| 2026-04-22 21:49 | 48.69280 | 12.34975 | 28035 ft | 401 kts | 290° |
| 2026-04-22 21:50 | 48.71277 | 12.27085 | 28036 ft | 404 kts | 290° |
| 2026-04-22 21:50 | 48.72956 | 12.20422 | 28036 ft | 407 kts | 290° |
| 2026-04-22 21:51 | 48.75108 | 12.10952 | 28036 ft | 410 kts | 282° |
| 2026-04-22 21:52 | 48.76375 | 11.99519 | 28036 ft | 413 kts | 279° |
| 2026-04-22 21:52 | 48.77306 | 11.90895 | 28037 ft | 416 kts | 279° |
| 2026-04-22 21:53 | 48.78235 | 11.82230 | 28037 ft | 418 kts | 279° |
| 2026-04-22 21:53 | 48.79155 | 11.73538 | 28037 ft | 420 kts | 278° |
| 2026-04-22 21:54 | 48.80079 | 11.64766 | 28124 ft | 419 kts | 278° |
| 2026-04-22 21:54 | 48.80532 | 11.60453 | 28244 ft | 417 kts | 278° |
| 2026-04-22 21:54 | 48.80988 | 11.56093 | 28367 ft | 415 kts | 278° |
| 2026-04-22 21:54 | 48.81436 | 11.51778 | 28490 ft | 412 kts | 278° |
| 2026-04-22 21:55 | 48.81878 | 11.47485 | 28613 ft | 410 kts | 278° |
| 2026-04-22 21:55 | 48.82312 | 11.43262 | 28735 ft | 408 kts | 278° |
| 2026-04-22 21:55 | 48.82746 | 11.39002 | 28859 ft | 406 kts | 278° |
| 2026-04-22 21:55 | 48.83174 | 11.34767 | 28983 ft | 404 kts | 278° |
| 2026-04-22 21:56 | 48.83625 | 11.30610 | 29106 ft | 402 kts | 282° |
| 2026-04-22 21:56 | 48.84397 | 11.26536 | 29231 ft | 400 kts | 290° |
| 2026-04-22 21:56 | 48.85539 | 11.22679 | 29356 ft | 398 kts | 298° |
| 2026-04-22 21:56 | 48.86999 | 11.19180 | 29479 ft | 396 kts | 307° |
| 2026-04-22 21:57 | 48.88793 | 11.15985 | 29604 ft | 395 kts | 315° |
| 2026-04-22 21:57 | 48.90802 | 11.13141 | 29730 ft | 393 kts | 317° |
| 2026-04-22 21:57 | 48.92822 | 11.10333 | 29864 ft | 390 kts | 317° |
| 2026-04-22 21:57 | 48.94791 | 11.07584 | 29984 ft | 389 kts | 317° |
| 2026-04-22 21:58 | 48.96792 | 11.04781 | 30010 ft | 390 kts | 317° |
| 2026-04-22 21:58 | 49.00781 | 10.99182 | 30010 ft | 393 kts | 317° |
| 2026-04-22 21:59 | 49.04807 | 10.93523 | 30010 ft | 396 kts | 317° |
| 2026-04-22 21:59 | 49.08880 | 10.87792 | 30010 ft | 398 kts | 317° |
| 2026-04-22 22:00 | 49.12942 | 10.82053 | 30010 ft | 401 kts | 317° |
| 2026-04-22 22:00 | 49.17060 | 10.76220 | 30010 ft | 403 kts | 316° |
| 2026-04-22 22:01 | 49.21135 | 10.70358 | 30009 ft | 405 kts | 315° |
| 2026-04-22 22:01 | 49.25102 | 10.64159 | 30009 ft | 407 kts | 313° |
| 2026-04-22 22:02 | 49.29004 | 10.57874 | 30009 ft | 409 kts | 313° |
| 2026-04-22 22:02 | 49.32930 | 10.51591 | 30009 ft | 410 kts | 313° |
| 2026-04-22 22:03 | 49.36773 | 10.45086 | 30009 ft | 411 kts | 305° |
| 2026-04-22 22:03 | 49.40055 | 10.37926 | 30009 ft | 412 kts | 304° |
| 2026-04-22 22:04 | 49.43356 | 10.30689 | 30009 ft | 413 kts | 304° |
| 2026-04-22 22:04 | 49.46641 | 10.23474 | 30009 ft | 414 kts | 304° |
| 2026-04-22 22:05 | 49.49959 | 10.16162 | 30009 ft | 415 kts | 304° |
| 2026-04-22 22:05 | 49.53250 | 10.08882 | 30009 ft | 416 kts | 304° |
| 2026-04-22 22:06 | 49.56547 | 10.01569 | 30009 ft | 417 kts | 304° |
| 2026-04-22 22:06 | 49.59848 | 9.94234 | 30009 ft | 418 kts | 304° |
| 2026-04-22 22:07 | 49.63170 | 9.86825 | 30009 ft | 419 kts | 304° |
| 2026-04-22 22:07 | 49.66472 | 9.79432 | 30009 ft | 420 kts | 304° |
| 2026-04-22 22:08 | 49.69793 | 9.71990 | 30009 ft | 420 kts | 304° |
| 2026-04-22 22:08 | 49.73121 | 9.64505 | 29112 ft | 428 kts | 304° |
| 2026-04-22 22:08 | 49.74823 | 9.60666 | 27597 ft | 449 kts | 304° |
| 2026-04-22 22:09 | 49.76636 | 9.56575 | 26181 ft | 466 kts | 304° |
| 2026-04-22 22:09 | 49.78497 | 9.52374 | 24890 ft | 476 kts | 304° |
| 2026-04-22 22:09 | 49.80365 | 9.48146 | 23798 ft | 482 kts | 304° |
| 2026-04-22 22:09 | 49.82233 | 9.43903 | 23497 ft | 468 kts | 304° |
| 2026-04-22 22:10 | 49.84044 | 9.39787 | 23362 ft | 451 kts | 304° |
| 2026-04-22 22:10 | 49.85701 | 9.35840 | 23235 ft | 434 kts | 298° |
| 2026-04-22 22:10 | 49.86850 | 9.31601 | 23109 ft | 418 kts | 287° |
| 2026-04-22 22:10 | 49.87672 | 9.27335 | 22980 ft | 403 kts | 286° |
| 2026-04-22 22:11 | 49.88457 | 9.23223 | 22849 ft | 390 kts | 286° |
| 2026-04-22 22:11 | 49.89208 | 9.19270 | 22561 ft | 382 kts | 286° |
| 2026-04-22 22:11 | 49.89959 | 9.15310 | 22163 ft | 378 kts | 286° |
| 2026-04-22 22:11 | 49.90692 | 9.11443 | 21743 ft | 375 kts | 286° |
| 2026-04-22 22:12 | 49.91429 | 9.07567 | 21309 ft | 372 kts | 286° |
| 2026-04-22 22:12 | 49.92161 | 9.03717 | 20874 ft | 369 kts | 286° |
| 2026-04-22 22:12 | 49.92878 | 8.99952 | 20420 ft | 364 kts | 286° |
| 2026-04-22 22:12 | 49.93593 | 8.96222 | 19552 ft | 357 kts | 286° |
| 2026-04-22 22:13 | 49.94299 | 8.92533 | 18660 ft | 352 kts | 286° |
| 2026-04-22 22:13 | 49.94981 | 8.88958 | 17809 ft | 347 kts | 286° |
| 2026-04-22 22:13 | 49.95663 | 8.85365 | 16957 ft | 342 kts | 286° |
| 2026-04-22 22:13 | 49.96328 | 8.81852 | 16126 ft | 337 kts | 286° |
| 2026-04-22 22:14 | 49.96978 | 8.78420 | 15316 ft | 332 kts | 286° |
| 2026-04-22 22:14 | 49.97613 | 8.74990 | 14500 ft | 327 kts | 282° |
| 2026-04-22 22:14 | 49.97813 | 8.71504 | 13706 ft | 320 kts | 265° |
| 2026-04-22 22:14 | 49.97400 | 8.68172 | 12915 ft | 315 kts | 250° |
| 2026-04-22 22:15 | 49.96636 | 8.64989 | 12087 ft | 312 kts | 249° |
| 2026-04-22 22:15 | 49.95879 | 8.61851 | 11296 ft | 308 kts | 249° |
| 2026-04-22 22:15 | 49.95132 | 8.58744 | 10514 ft | 303 kts | 249° |
| 2026-04-22 22:15 | 49.95075 | 8.58509 | 10454 ft | 303 kts | 249° |